sensor_id;sensor_type;location;lat;lon;timestamp;P1;durP1;ratioP1;P2;durP2;ratioP2
11957;SDS011;6039;52.576;13.348;2022-07-03T00:03:10;7.73;;;4.90;;
11957;SDS011;6039;52.576;13.348;2022-07-03T00:08:14;4.93;;;4.33;;
11957;SDS011;6039;52.576;13.348;2022-07-03T00:13:16;5.33;;;4.30;;
11957;SDS011;6039;52.576;13.348;2022-07-03T00:18:19;5.40;;;4.57;;
11957;SDS011;6039;52.576;13.348;2022-07-03T00:23:23;4.73;;;4.23;;
11957;SDS011;6039;52.576;13.348;2022-07-03T00:28:25;4.60;;;4.20;;
11957;SDS011;6039;52.576;13.348;2022-07-03T00:33:28;6.17;;;4.53;;
11957;SDS011;6039;52.576;13.348;2022-07-03T00:38:34;6.10;;;4.23;;
11957;SDS011;6039;52.576;13.348;2022-07-03T00:43:36;5.33;;;4.40;;
11957;SDS011;6039;52.576;13.348;2022-07-03T00:48:39;6.53;;;4.30;;
11957;SDS011;6039;52.576;13.348;2022-07-03T00:53:46;6.10;;;4.70;;
11957;SDS011;6039;52.576;13.348;2022-07-03T00:58:49;5.17;;;4.67;;
11957;SDS011;6039;52.576;13.348;2022-07-03T01:03:57;4.80;;;4.30;;
11957;SDS011;6039;52.576;13.348;2022-07-03T01:09:06;6.43;;;4.90;;
11957;SDS011;6039;52.576;13.348;2022-07-03T01:14:13;5.10;;;4.60;;
11957;SDS011;6039;52.576;13.348;2022-07-03T01:19:21;7.70;;;5.00;;
11957;SDS011;6039;52.576;13.348;2022-07-03T01:24:43;6.20;;;5.03;;
11957;SDS011;6039;52.576;13.348;2022-07-03T01:29:59;5.47;;;4.90;;
11957;SDS011;6039;52.576;13.348;2022-07-03T01:35:04;6.57;;;4.40;;
11957;SDS011;6039;52.576;13.348;2022-07-03T01:40:08;5.77;;;4.70;;
11957;SDS011;6039;52.576;13.348;2022-07-03T01:45:13;5.10;;;4.60;;
11957;SDS011;6039;52.576;13.348;2022-07-03T01:50:16;5.63;;;5.07;;
11957;SDS011;6039;52.576;13.348;2022-07-03T01:55:19;6.70;;;4.97;;
11957;SDS011;6039;52.576;13.348;2022-07-03T02:00:24;8.23;;;5.00;;
11957;SDS011;6039;52.576;13.348;2022-07-03T02:05:32;5.53;;;4.93;;
11957;SDS011;6039;52.576;13.348;2022-07-03T02:10:38;5.47;;;4.50;;
11957;SDS011;6039;52.576;13.348;2022-07-03T02:15:49;5.47;;;4.97;;
11957;SDS011;6039;52.576;13.348;2022-07-03T02:20:54;5.47;;;4.90;;
11957;SDS011;6039;52.576;13.348;2022-07-03T02:26:05;5.97;;;5.00;;
11957;SDS011;6039;52.576;13.348;2022-07-03T02:31:10;6.87;;;5.20;;
11957;SDS011;6039;52.576;13.348;2022-07-03T02:36:15;5.80;;;5.20;;
11957;SDS011;6039;52.576;13.348;2022-07-03T02:41:21;5.90;;;5.07;;
11957;SDS011;6039;52.576;13.348;2022-07-03T02:46:34;5.50;;;5.00;;
11957;SDS011;6039;52.576;13.348;2022-07-03T02:52:02;5.50;;;5.00;;
11957;SDS011;6039;52.576;13.348;2022-07-03T02:57:13;5.77;;;5.00;;
11957;SDS011;6039;52.576;13.348;2022-07-03T03:02:23;6.77;;;5.10;;
11957;SDS011;6039;52.576;13.348;2022-07-03T03:07:42;6.00;;;5.07;;
11957;SDS011;6039;52.576;13.348;2022-07-03T03:12:58;8.70;;;5.17;;
11957;SDS011;6039;52.576;13.348;2022-07-03T03:18:05;5.03;;;4.63;;
11957;SDS011;6039;52.576;13.348;2022-07-03T03:23:15;5.20;;;4.70;;
11957;SDS011;6039;52.576;13.348;2022-07-03T03:28:20;6.70;;;4.97;;
11957;SDS011;6039;52.576;13.348;2022-07-03T03:33:24;6.77;;;5.10;;
11957;SDS011;6039;52.576;13.348;2022-07-03T03:38:27;7.57;;;5.40;;
11957;SDS011;6039;52.576;13.348;2022-07-03T03:43:29;8.17;;;5.10;;
11957;SDS011;6039;52.576;13.348;2022-07-03T03:48:34;8.73;;;4.80;;
11957;SDS011;6039;52.576;13.348;2022-07-03T03:53:36;5.53;;;5.03;;
11957;SDS011;6039;52.576;13.348;2022-07-03T03:58:39;5.40;;;4.90;;
11957;SDS011;6039;52.576;13.348;2022-07-03T04:03:44;5.20;;;4.70;;
11957;SDS011;6039;52.576;13.348;2022-07-03T04:08:46;6.90;;;5.20;;
11957;SDS011;6039;52.576;13.348;2022-07-03T04:13:49;5.50;;;5.00;;
11957;SDS011;6039;52.576;13.348;2022-07-03T04:18:53;8.00;;;5.20;;
11957;SDS011;6039;52.576;13.348;2022-07-03T04:23:55;5.50;;;5.00;;
11957;SDS011;6039;52.576;13.348;2022-07-03T04:28:59;5.47;;;4.97;;
11957;SDS011;6039;52.576;13.348;2022-07-03T04:34:03;6.03;;;5.30;;
11957;SDS011;6039;52.576;13.348;2022-07-03T04:39:05;6.43;;;5.33;;
11957;SDS011;6039;52.576;13.348;2022-07-03T04:44:08;7.43;;;5.13;;
11957;SDS011;6039;52.576;13.348;2022-07-03T04:49:12;5.50;;;5.00;;
11957;SDS011;6039;52.576;13.348;2022-07-03T04:54:14;7.40;;;5.20;;
11957;SDS011;6039;52.576;13.348;2022-07-03T04:59:16;6.23;;;5.13;;
11957;SDS011;6039;52.576;13.348;2022-07-03T05:04:20;5.60;;;5.10;;
11957;SDS011;6039;52.576;13.348;2022-07-03T05:09:23;4.97;;;4.50;;
11957;SDS011;6039;52.576;13.348;2022-07-03T05:14:25;6.07;;;4.93;;
11957;SDS011;6039;52.576;13.348;2022-07-03T05:19:29;5.47;;;4.73;;
11957;SDS011;6039;52.576;13.348;2022-07-03T05:24:32;6.13;;;5.13;;
11957;SDS011;6039;52.576;13.348;2022-07-03T05:29:34;5.93;;;4.63;;
11957;SDS011;6039;52.576;13.348;2022-07-03T05:34:38;4.87;;;4.40;;
11957;SDS011;6039;52.576;13.348;2022-07-03T05:39:41;5.33;;;4.50;;
11957;SDS011;6039;52.576;13.348;2022-07-03T05:44:43;5.37;;;4.87;;
11957;SDS011;6039;52.576;13.348;2022-07-03T05:49:48;6.80;;;4.23;;
11957;SDS011;6039;52.576;13.348;2022-07-03T05:54:50;5.13;;;4.57;;
11957;SDS011;6039;52.576;13.348;2022-07-03T05:59:53;4.97;;;4.47;;
11957;SDS011;6039;52.576;13.348;2022-07-03T06:04:56;4.53;;;4.13;;
11957;SDS011;6039;52.576;13.348;2022-07-03T06:09:59;5.27;;;4.30;;
11957;SDS011;6039;52.576;13.348;2022-07-03T06:15:01;5.47;;;3.97;;
11957;SDS011;6039;52.576;13.348;2022-07-03T06:20:06;4.50;;;3.53;;
11957;SDS011;6039;52.576;13.348;2022-07-03T06:25:10;5.33;;;3.63;;
11957;SDS011;6039;52.576;13.348;2022-07-03T06:30:13;5.57;;;3.50;;
11957;SDS011;6039;52.576;13.348;2022-07-03T06:35:17;5.93;;;3.97;;
11957;SDS011;6039;52.576;13.348;2022-07-03T06:40:19;4.23;;;3.70;;
11957;SDS011;6039;52.576;13.348;2022-07-03T06:45:22;7.63;;;3.47;;
11957;SDS011;6039;52.576;13.348;2022-07-03T06:50:26;4.00;;;3.50;;
11957;SDS011;6039;52.576;13.348;2022-07-03T06:55:28;4.53;;;3.30;;
11957;SDS011;6039;52.576;13.348;2022-07-03T07:00:31;5.03;;;3.23;;
11957;SDS011;6039;52.576;13.348;2022-07-03T07:05:35;4.30;;;3.40;;
11957;SDS011;6039;52.576;13.348;2022-07-03T07:10:37;4.07;;;3.60;;
11957;SDS011;6039;52.576;13.348;2022-07-03T07:15:39;5.63;;;3.30;;
11957;SDS011;6039;52.576;13.348;2022-07-03T07:20:43;4.20;;;3.60;;
11957;SDS011;6039;52.576;13.348;2022-07-03T07:25:46;4.80;;;3.50;;
11957;SDS011;6039;52.576;13.348;2022-07-03T07:30:48;3.40;;;3.10;;
11957;SDS011;6039;52.576;13.348;2022-07-03T07:35:55;5.53;;;3.30;;
11957;SDS011;6039;52.576;13.348;2022-07-03T07:40:58;5.32;;;3.15;;
11957;SDS011;6039;52.576;13.348;2022-07-03T07:46:00;3.42;;;3.00;;
11957;SDS011;6039;52.576;13.348;2022-07-03T07:51:04;2.70;;;2.50;;
11957;SDS011;6039;52.576;13.348;2022-07-03T07:56:06;3.33;;;2.90;;
11957;SDS011;6039;52.576;13.348;2022-07-03T08:01:09;2.97;;;2.78;;
11957;SDS011;6039;52.576;13.348;2022-07-03T08:06:30;4.20;;;2.88;;
11957;SDS011;6039;52.576;13.348;2022-07-03T08:11:33;3.35;;;2.80;;
11957;SDS011;6039;52.576;13.348;2022-07-03T08:16:36;3.13;;;2.92;;
11957;SDS011;6039;52.576;13.348;2022-07-03T08:21:42;3.13;;;2.83;;
11957;SDS011;6039;52.576;13.348;2022-07-03T08:26:44;3.95;;;3.00;;
11957;SDS011;6039;52.576;13.348;2022-07-03T08:31:47;2.70;;;2.50;;
11957;SDS011;6039;52.576;13.348;2022-07-03T08:36:51;3.28;;;2.90;;
11957;SDS011;6039;52.576;13.348;2022-07-03T08:41:53;2.60;;;2.40;;
11957;SDS011;6039;52.576;13.348;2022-07-03T08:46:56;3.22;;;2.92;;
11957;SDS011;6039;52.576;13.348;2022-07-03T08:52:03;3.97;;;2.83;;
11957;SDS011;6039;52.576;13.348;2022-07-03T08:57:07;3.30;;;2.90;;
11957;SDS011;6039;52.576;13.348;2022-07-03T09:02:11;3.08;;;2.78;;
11957;SDS011;6039;52.576;13.348;2022-07-03T09:07:16;3.30;;;2.83;;
11957;SDS011;6039;52.576;13.348;2022-07-03T09:12:20;4.88;;;2.70;;
11957;SDS011;6039;52.576;13.348;2022-07-03T09:17:23;3.58;;;2.95;;
11957;SDS011;6039;52.576;13.348;2022-07-03T09:22:28;2.80;;;2.60;;
11957;SDS011;6039;52.576;13.348;2022-07-03T09:27:31;3.35;;;2.83;;
11957;SDS011;6039;52.576;13.348;2022-07-03T09:32:40;4.00;;;2.80;;
11957;SDS011;6039;52.576;13.348;2022-07-03T09:37:49;2.78;;;2.58;;
11957;SDS011;6039;52.576;13.348;2022-07-03T09:42:59;4.07;;;2.70;;
11957;SDS011;6039;52.576;13.348;2022-07-03T09:48:03;4.45;;;2.80;;
11957;SDS011;6039;52.576;13.348;2022-07-03T09:53:07;4.05;;;2.83;;
11957;SDS011;6039;52.576;13.348;2022-07-03T09:58:09;2.70;;;2.50;;
11957;SDS011;6039;52.576;13.348;2022-07-03T10:03:11;3.47;;;2.50;;
11957;SDS011;6039;52.576;13.348;2022-07-03T10:08:15;2.60;;;2.35;;
11957;SDS011;6039;52.576;13.348;2022-07-03T10:13:19;2.60;;;2.40;;
11957;SDS011;6039;52.576;13.348;2022-07-03T10:18:22;2.47;;;2.28;;
11957;SDS011;6039;52.576;13.348;2022-07-03T10:23:26;2.67;;;2.47;;
11957;SDS011;6039;52.576;13.348;2022-07-03T10:28:28;2.72;;;2.42;;
11957;SDS011;6039;52.576;13.348;2022-07-03T10:33:32;2.75;;;2.55;;
11957;SDS011;6039;52.576;13.348;2022-07-03T10:38:38;2.70;;;2.50;;
11957;SDS011;6039;52.576;13.348;2022-07-03T10:43:43;2.75;;;2.55;;
11957;SDS011;6039;52.576;13.348;2022-07-03T10:49:05;3.03;;;2.70;;
11957;SDS011;6039;52.576;13.348;2022-07-03T10:54:16;2.60;;;2.40;;
11957;SDS011;6039;52.576;13.348;2022-07-03T10:59:19;2.42;;;2.22;;
11957;SDS011;6039;52.576;13.348;2022-07-03T11:04:22;2.80;;;2.50;;
11957;SDS011;6039;52.576;13.348;2022-07-03T11:09:25;5.07;;;2.53;;
11957;SDS011;6039;52.576;13.348;2022-07-03T11:14:28;2.78;;;2.55;;
11957;SDS011;6039;52.576;13.348;2022-07-03T11:19:31;2.80;;;2.42;;
11957;SDS011;6039;52.576;13.348;2022-07-03T11:24:43;4.13;;;2.58;;
11957;SDS011;6039;52.576;13.348;2022-07-03T11:29:53;3.75;;;2.30;;
11957;SDS011;6039;52.576;13.348;2022-07-03T11:34:58;3.70;;;2.40;;
11957;SDS011;6039;52.576;13.348;2022-07-03T11:40:02;2.78;;;2.15;;
11957;SDS011;6039;52.576;13.348;2022-07-03T11:45:06;2.50;;;2.30;;
11957;SDS011;6039;52.576;13.348;2022-07-03T11:50:09;2.67;;;2.30;;
11957;SDS011;6039;52.576;13.348;2022-07-03T11:55:13;5.47;;;3.03;;
11957;SDS011;6039;52.576;13.348;2022-07-03T12:00:16;2.40;;;2.20;;
11957;SDS011;6039;52.576;13.348;2022-07-03T12:05:19;2.88;;;2.60;;
11957;SDS011;6039;52.576;13.348;2022-07-03T12:10:22;2.67;;;2.42;;
11957;SDS011;6039;52.576;13.348;2022-07-03T12:15:38;3.00;;;2.35;;
11957;SDS011;6039;52.576;13.348;2022-07-03T12:20:41;2.95;;;2.75;;
11957;SDS011;6039;52.576;13.348;2022-07-03T12:25:45;2.60;;;2.40;;
11957;SDS011;6039;52.576;13.348;2022-07-03T12:30:47;2.85;;;2.50;;
11957;SDS011;6039;52.576;13.348;2022-07-03T12:36:01;3.00;;;2.50;;
11957;SDS011;6039;52.576;13.348;2022-07-03T12:41:06;3.20;;;2.30;;
11957;SDS011;6039;52.576;13.348;2022-07-03T12:46:19;2.50;;;2.30;;
11957;SDS011;6039;52.576;13.348;2022-07-03T12:51:38;2.65;;;2.30;;
11957;SDS011;6039;52.576;13.348;2022-07-03T12:56:42;4.38;;;2.47;;
11957;SDS011;6039;52.576;13.348;2022-07-03T13:01:45;2.38;;;2.17;;
11957;SDS011;6039;52.576;13.348;2022-07-03T13:07:00;2.67;;;2.20;;
11957;SDS011;6039;52.576;13.348;2022-07-03T13:12:06;2.60;;;2.40;;
11957;SDS011;6039;52.576;13.348;2022-07-03T13:17:09;2.60;;;2.40;;
11957;SDS011;6039;52.576;13.348;2022-07-03T13:22:11;2.63;;;2.42;;
11957;SDS011;6039;52.576;13.348;2022-07-03T13:27:15;2.50;;;2.30;;
11957;SDS011;6039;52.576;13.348;2022-07-03T13:32:18;2.40;;;2.20;;
11957;SDS011;6039;52.576;13.348;2022-07-03T13:37:20;2.47;;;2.28;;
11957;SDS011;6039;52.576;13.348;2022-07-03T13:42:24;2.95;;;2.33;;
11957;SDS011;6039;52.576;13.348;2022-07-03T13:47:26;2.20;;;1.95;;
11957;SDS011;6039;52.576;13.348;2022-07-03T13:52:29;4.35;;;2.45;;
11957;SDS011;6039;52.576;13.348;2022-07-03T13:57:32;2.17;;;2.08;;
11957;SDS011;6039;52.576;13.348;2022-07-03T14:02:35;2.53;;;2.33;;
11957;SDS011;6039;52.576;13.348;2022-07-03T14:07:39;4.35;;;2.50;;
11957;SDS011;6039;52.576;13.348;2022-07-03T14:12:43;3.42;;;2.38;;
11957;SDS011;6039;52.576;13.348;2022-07-03T14:17:45;3.28;;;2.50;;
11957;SDS011;6039;52.576;13.348;2022-07-03T14:22:48;3.08;;;2.35;;
11957;SDS011;6039;52.576;13.348;2022-07-03T14:27:52;2.55;;;2.30;;
11957;SDS011;6039;52.576;13.348;2022-07-03T14:33:12;3.00;;;2.80;;
11957;SDS011;6039;52.576;13.348;2022-07-03T14:38:14;2.33;;;2.17;;
11957;SDS011;6039;52.576;13.348;2022-07-03T14:43:18;4.60;;;2.72;;
11957;SDS011;6039;52.576;13.348;2022-07-03T14:48:20;3.65;;;2.40;;
11957;SDS011;6039;52.576;13.348;2022-07-03T14:53:23;3.60;;;2.50;;
11957;SDS011;6039;52.576;13.348;2022-07-03T14:58:27;2.30;;;2.10;;
11957;SDS011;6039;52.576;13.348;2022-07-03T15:03:30;2.55;;;2.35;;
11957;SDS011;6039;52.576;13.348;2022-07-03T15:08:38;2.42;;;2.20;;
11957;SDS011;6039;52.576;13.348;2022-07-03T15:13:45;3.67;;;2.42;;
11957;SDS011;6039;52.576;13.348;2022-07-03T15:18:48;2.60;;;2.40;;
11957;SDS011;6039;52.576;13.348;2022-07-03T15:23:50;3.85;;;2.50;;
11957;SDS011;6039;52.576;13.348;2022-07-03T15:28:55;3.25;;;2.53;;
11957;SDS011;6039;52.576;13.348;2022-07-03T15:33:59;3.85;;;2.38;;
11957;SDS011;6039;52.576;13.348;2022-07-03T15:39:04;2.38;;;2.17;;
11957;SDS011;6039;52.576;13.348;2022-07-03T15:44:11;2.58;;;2.38;;
11957;SDS011;6039;52.576;13.348;2022-07-03T15:49:28;3.97;;;2.20;;
11957;SDS011;6039;52.576;13.348;2022-07-03T15:54:33;2.70;;;2.15;;
11957;SDS011;6039;52.576;13.348;2022-07-03T15:59:43;2.80;;;2.60;;
11957;SDS011;6039;52.576;13.348;2022-07-03T16:04:52;2.40;;;2.20;;
11957;SDS011;6039;52.576;13.348;2022-07-03T16:10:05;3.15;;;2.53;;
11957;SDS011;6039;52.576;13.348;2022-07-03T16:15:13;2.33;;;2.13;;
11957;SDS011;6039;52.576;13.348;2022-07-03T16:20:16;2.42;;;2.22;;
11957;SDS011;6039;52.576;13.348;2022-07-03T16:25:19;2.78;;;2.58;;
11957;SDS011;6039;52.576;13.348;2022-07-03T16:30:23;3.25;;;2.20;;
11957;SDS011;6039;52.576;13.348;2022-07-03T16:35:27;2.60;;;2.17;;
11957;SDS011;6039;52.576;13.348;2022-07-03T16:40:32;2.47;;;2.28;;
11957;SDS011;6039;52.576;13.348;2022-07-03T16:45:36;2.28;;;2.10;;
11957;SDS011;6039;52.576;13.348;2022-07-03T16:50:39;2.83;;;2.60;;
11957;SDS011;6039;52.576;13.348;2022-07-03T16:55:50;2.75;;;2.47;;
11957;SDS011;6039;52.576;13.348;2022-07-03T17:00:55;2.85;;;2.50;;
11957;SDS011;6039;52.576;13.348;2022-07-03T17:06:05;2.60;;;2.40;;
11957;SDS011;6039;52.576;13.348;2022-07-03T17:11:08;2.88;;;2.67;;
11957;SDS011;6039;52.576;13.348;2022-07-03T17:16:12;3.03;;;2.60;;
11957;SDS011;6039;52.576;13.348;2022-07-03T17:21:29;2.50;;;2.30;;
11957;SDS011;6039;52.576;13.348;2022-07-03T17:26:33;2.75;;;2.20;;
11957;SDS011;6039;52.576;13.348;2022-07-03T17:31:41;4.82;;;2.65;;
11957;SDS011;6039;52.576;13.348;2022-07-03T17:36:44;2.50;;;2.30;;
11957;SDS011;6039;52.576;13.348;2022-07-03T17:41:47;2.78;;;2.40;;
11957;SDS011;6039;52.576;13.348;2022-07-03T17:46:51;2.60;;;2.40;;
11957;SDS011;6039;52.576;13.348;2022-07-03T17:51:57;4.10;;;2.30;;
11957;SDS011;6039;52.576;13.348;2022-07-03T17:57:00;4.30;;;2.10;;
11957;SDS011;6039;52.576;13.348;2022-07-03T18:02:25;2.77;;;2.57;;
11957;SDS011;6039;52.576;13.348;2022-07-03T18:07:30;3.00;;;2.70;;
11957;SDS011;6039;52.576;13.348;2022-07-03T18:12:42;2.70;;;2.42;;
11957;SDS011;6039;52.576;13.348;2022-07-03T18:17:52;3.97;;;2.50;;
11957;SDS011;6039;52.576;13.348;2022-07-03T18:22:56;3.85;;;2.50;;
11957;SDS011;6039;52.576;13.348;2022-07-03T18:28:00;3.15;;;2.50;;
11957;SDS011;6039;52.576;13.348;2022-07-03T18:33:04;3.92;;;2.90;;
11957;SDS011;6039;52.576;13.348;2022-07-03T18:38:08;3.63;;;2.80;;
11957;SDS011;6039;52.576;13.348;2022-07-03T18:43:12;2.70;;;2.50;;
11957;SDS011;6039;52.576;13.348;2022-07-03T18:48:17;5.85;;;2.83;;
11957;SDS011;6039;52.576;13.348;2022-07-03T18:53:21;4.38;;;3.55;;
11957;SDS011;6039;52.576;13.348;2022-07-03T18:58:31;3.80;;;3.50;;
11957;SDS011;6039;52.576;13.348;2022-07-03T19:03:40;4.53;;;3.40;;
11957;SDS011;6039;52.576;13.348;2022-07-03T19:08:51;5.22;;;3.70;;
11957;SDS011;6039;52.576;13.348;2022-07-03T19:13:58;3.83;;;3.42;;
11957;SDS011;6039;52.576;13.348;2022-07-03T19:19:05;6.10;;;3.60;;
11957;SDS011;6039;52.576;13.348;2022-07-03T19:24:08;5.03;;;3.30;;
11957;SDS011;6039;52.576;13.348;2022-07-03T19:29:11;4.93;;;3.97;;
11957;SDS011;6039;52.576;13.348;2022-07-03T19:34:15;5.95;;;3.63;;
11957;SDS011;6039;52.576;13.348;2022-07-03T19:39:19;6.30;;;4.77;;
11957;SDS011;6039;52.576;13.348;2022-07-03T19:44:21;5.40;;;4.40;;
11957;SDS011;6039;52.576;13.348;2022-07-03T19:49:25;5.23;;;4.73;;
11957;SDS011;6039;52.576;13.348;2022-07-03T19:54:28;6.47;;;5.07;;
11957;SDS011;6039;52.576;13.348;2022-07-03T19:59:30;5.78;;;5.18;;
11957;SDS011;6039;52.576;13.348;2022-07-03T20:04:34;6.35;;;5.40;;
11957;SDS011;6039;52.576;13.348;2022-07-03T20:09:37;8.40;;;5.23;;
11957;SDS011;6039;52.576;13.348;2022-07-03T20:14:39;6.50;;;4.53;;
11957;SDS011;6039;52.576;13.348;2022-07-03T20:19:45;6.77;;;4.57;;
11957;SDS011;6039;52.576;13.348;2022-07-03T20:24:47;4.23;;;3.63;;
11957;SDS011;6039;52.576;13.348;2022-07-03T20:29:50;3.88;;;3.53;;
11957;SDS011;6039;52.576;13.348;2022-07-03T20:34:53;4.40;;;4.00;;
11957;SDS011;6039;52.576;13.348;2022-07-03T20:39:56;4.65;;;3.28;;
11957;SDS011;6039;52.576;13.348;2022-07-03T20:44:59;3.93;;;3.40;;
11957;SDS011;6039;52.576;13.348;2022-07-03T20:50:02;4.03;;;3.63;;
11957;SDS011;6039;52.576;13.348;2022-07-03T20:55:06;4.23;;;3.60;;
11957;SDS011;6039;52.576;13.348;2022-07-03T21:00:10;4.10;;;3.70;;
11957;SDS011;6039;52.576;13.348;2022-07-03T21:05:14;4.70;;;3.93;;
11957;SDS011;6039;52.576;13.348;2022-07-03T21:10:17;4.78;;;4.28;;
11957;SDS011;6039;52.576;13.348;2022-07-03T21:15:40;7.00;;;4.40;;
11957;SDS011;6039;52.576;13.348;2022-07-03T21:20:44;6.63;;;4.00;;
11957;SDS011;6039;52.576;13.348;2022-07-03T21:25:46;8.27;;;4.80;;
11957;SDS011;6039;52.576;13.348;2022-07-03T21:30:48;7.60;;;4.67;;
11957;SDS011;6039;52.576;13.348;2022-07-03T21:35:52;5.80;;;4.80;;
11957;SDS011;6039;52.576;13.348;2022-07-03T21:40:55;4.77;;;4.37;;
11957;SDS011;6039;52.576;13.348;2022-07-03T21:45:57;5.70;;;4.50;;
11957;SDS011;6039;52.576;13.348;2022-07-03T21:51:02;6.13;;;4.10;;
11957;SDS011;6039;52.576;13.348;2022-07-03T21:56:05;5.93;;;4.20;;
11957;SDS011;6039;52.576;13.348;2022-07-03T22:01:08;6.47;;;3.67;;
11957;SDS011;6039;52.576;13.348;2022-07-03T22:06:12;5.60;;;3.80;;
11957;SDS011;6039;52.576;13.348;2022-07-03T22:11:14;4.17;;;3.77;;
11957;SDS011;6039;52.576;13.348;2022-07-03T22:16:17;8.13;;;3.83;;
11957;SDS011;6039;52.576;13.348;2022-07-03T22:21:20;4.27;;;3.87;;
11957;SDS011;6039;52.576;13.348;2022-07-03T22:26:23;6.27;;;4.50;;
11957;SDS011;6039;52.576;13.348;2022-07-03T22:31:25;5.13;;;4.00;;
11957;SDS011;6039;52.576;13.348;2022-07-03T22:36:47;6.83;;;4.20;;
11957;SDS011;6039;52.576;13.348;2022-07-03T22:41:52;6.17;;;3.90;;
11957;SDS011;6039;52.576;13.348;2022-07-03T22:46:55;5.60;;;4.10;;
11957;SDS011;6039;52.576;13.348;2022-07-03T22:51:59;4.70;;;3.83;;
11957;SDS011;6039;52.576;13.348;2022-07-03T22:57:03;6.23;;;4.30;;
11957;SDS011;6039;52.576;13.348;2022-07-03T23:02:08;6.90;;;4.23;;
11957;SDS011;6039;52.576;13.348;2022-07-03T23:07:13;6.00;;;4.07;;
11957;SDS011;6039;52.576;13.348;2022-07-03T23:12:15;4.70;;;3.50;;
11957;SDS011;6039;52.576;13.348;2022-07-03T23:17:18;4.73;;;3.40;;
11957;SDS011;6039;52.576;13.348;2022-07-03T23:22:22;3.60;;;3.30;;
11957;SDS011;6039;52.576;13.348;2022-07-03T23:27:24;5.37;;;3.50;;
11957;SDS011;6039;52.576;13.348;2022-07-03T23:32:26;6.67;;;4.13;;
11957;SDS011;6039;52.576;13.348;2022-07-03T23:37:30;5.63;;;3.37;;
11957;SDS011;6039;52.576;13.348;2022-07-03T23:42:32;6.97;;;3.23;;
11957;SDS011;6039;52.576;13.348;2022-07-03T23:47:35;5.03;;;3.57;;
11957;SDS011;6039;52.576;13.348;2022-07-03T23:52:39;4.53;;;2.90;;
11957;SDS011;6039;52.576;13.348;2022-07-03T23:57:41;4.60;;;2.83;;
